createdAt,value
2022-10-18T00:00:41.507Z,16.82
2022-10-18T00:03:09.682Z,16.80
2022-10-18T00:05:36.416Z,16.80
2022-10-18T00:08:03.212Z,16.79
2022-10-18T00:10:29.808Z,16.76
2022-10-18T00:12:56.636Z,16.73
2022-10-18T00:15:23.228Z,16.72
2022-10-18T00:17:49.937Z,16.70
2022-10-18T00:20:18.143Z,16.70
2022-10-18T00:22:44.771Z,16.70
2022-10-18T00:25:11.576Z,16.70
2022-10-18T00:27:38.188Z,16.70
2022-10-18T00:30:06.243Z,16.69
2022-10-18T00:32:36.651Z,16.68
2022-10-18T00:35:04.311Z,16.68
2022-10-18T00:37:32.920Z,16.68
2022-10-18T00:39:59.563Z,16.66
2022-10-18T00:42:31.029Z,16.66
2022-10-18T00:45:06.292Z,16.64
2022-10-18T00:47:34.657Z,16.63
2022-10-18T00:50:04.560Z,16.63
2022-10-18T00:52:36.035Z,16.63
2022-10-18T00:55:03.843Z,16.62
2022-10-18T00:57:30.586Z,16.61
2022-10-18T00:59:57.375Z,16.60
2022-10-18T01:02:24.765Z,16.61
2022-10-18T01:04:51.689Z,16.62
2022-10-18T01:07:45.747Z,16.57
2022-10-18T01:10:31.090Z,16.57
2022-10-18T01:13:25.615Z,16.59
2022-10-18T01:16:00.306Z,16.59
2022-10-18T01:18:32.773Z,16.61
2022-10-18T01:21:16.898Z,16.63
2022-10-18T01:24:20.744Z,16.64
2022-10-18T01:27:27.756Z,16.65
2022-10-18T01:30:12.161Z,16.65
2022-10-18T01:32:44.762Z,16.66
2022-10-18T01:35:15.113Z,16.67
2022-10-18T01:37:45.234Z,16.67
2022-10-18T01:40:14.390Z,16.69
2022-10-18T01:42:41.489Z,16.69
2022-10-18T01:45:10.080Z,16.69
2022-10-18T01:47:37.222Z,16.69
2022-10-18T01:50:07.013Z,16.69
2022-10-18T01:52:33.863Z,16.68
2022-10-18T01:55:03.401Z,16.68
2022-10-18T01:57:36.895Z,16.67
2022-10-18T02:00:08.688Z,16.68
2022-10-18T02:02:44.080Z,16.67
2022-10-18T02:05:21.644Z,16.69
2022-10-18T02:08:05.602Z,16.70
2022-10-18T02:10:42.816Z,16.69
2022-10-18T02:13:11.518Z,16.69
2022-10-18T02:15:39.446Z,16.69
2022-10-18T02:18:13.183Z,16.68
2022-10-18T02:20:42.286Z,16.70
2022-10-18T02:23:11.214Z,16.70
2022-10-18T02:25:39.140Z,16.70
2022-10-18T02:28:06.054Z,16.71
2022-10-18T02:30:37.807Z,16.72
2022-10-18T02:33:11.872Z,16.72
2022-10-18T02:35:45.582Z,16.74
2022-10-18T02:38:14.316Z,16.72
2022-10-18T02:40:40.798Z,16.68
2022-10-18T02:43:07.589Z,16.68
2022-10-18T02:45:34.583Z,16.68
2022-10-18T02:48:01.395Z,16.68
2022-10-18T02:50:27.998Z,16.67
2022-10-18T02:52:55.935Z,16.64
2022-10-18T02:55:22.594Z,16.60
2022-10-18T02:57:49.207Z,16.61
2022-10-18T03:00:16.082Z,16.62
2022-10-18T03:02:42.724Z,16.64
2022-10-18T03:05:09.434Z,16.64
2022-10-18T03:07:35.983Z,16.66
2022-10-18T03:10:04.407Z,16.67
2022-10-18T03:12:30.991Z,16.69
2022-10-18T03:14:57.643Z,16.69
2022-10-18T03:17:24.442Z,16.69
2022-10-18T03:19:51.077Z,16.69
2022-10-18T03:22:17.930Z,16.69
2022-10-18T03:24:45.513Z,16.70
2022-10-18T03:27:13.560Z,16.69
2022-10-18T03:29:40.621Z,16.67
2022-10-18T03:32:07.307Z,16.65
2022-10-18T03:34:33.876Z,16.65
2022-10-18T03:37:03.360Z,16.63
2022-10-18T03:39:31.958Z,16.61
2022-10-18T03:41:58.627Z,16.59
2022-10-18T03:44:26.608Z,16.58
2022-10-18T03:46:53.236Z,16.54
2022-10-18T03:49:19.974Z,16.53
2022-10-18T03:51:46.658Z,16.54
2022-10-18T03:54:13.196Z,16.55
2022-10-18T03:56:39.807Z,16.53
2022-10-18T03:59:06.380Z,16.53
2022-10-18T04:01:34.421Z,16.53
2022-10-18T04:04:09.028Z,16.52
2022-10-18T04:06:35.658Z,16.50
2022-10-18T04:09:04.225Z,16.50
2022-10-18T04:11:33.531Z,16.50
2022-10-18T04:14:00.122Z,16.49
2022-10-18T04:16:26.773Z,16.51
2022-10-18T04:18:54.943Z,16.49
2022-10-18T04:23:48.875Z,16.47
2022-10-18T04:26:16.648Z,16.45
2022-10-18T04:28:44.207Z,16.45
2022-10-18T04:31:11.573Z,16.42
2022-10-18T04:33:39.025Z,16.41
2022-10-18T04:38:34.259Z,16.41
2022-10-18T04:41:00.839Z,16.41
2022-10-18T04:43:27.479Z,16.41
2022-10-18T04:45:54.407Z,16.40
2022-10-18T04:48:21.352Z,16.38
2022-10-18T04:50:48.847Z,16.38
2022-10-18T04:53:18.059Z,16.37
2022-10-18T04:55:45.279Z,16.38
2022-10-18T04:58:12.536Z,16.37
2022-10-18T05:00:40.138Z,16.37
2022-10-18T05:03:07.359Z,16.36
2022-10-18T05:05:49.829Z,16.36
2022-10-18T05:08:22.268Z,16.30
2022-10-18T05:10:48.977Z,16.28
2022-10-18T05:13:15.944Z,16.23
2022-10-18T05:15:42.516Z,16.20
2022-10-18T05:18:09.084Z,16.17
2022-10-18T05:20:35.821Z,16.15
2022-10-18T05:23:02.379Z,16.13
2022-10-18T05:25:30.639Z,16.13
2022-10-18T05:27:57.294Z,16.10
2022-10-18T05:30:23.946Z,16.09
2022-10-18T05:32:50.551Z,16.06
2022-10-18T05:35:17.286Z,16.03
2022-10-18T05:37:43.882Z,16.03
2022-10-18T05:40:11.531Z,16.02
2022-10-18T05:42:40.190Z,16.02
2022-10-18T05:45:07.222Z,15.99
2022-10-18T05:50:05.739Z,15.99
2022-10-18T05:52:32.730Z,15.99
2022-10-18T05:54:59.496Z,16.01
2022-10-18T05:57:26.352Z,16.00
2022-10-18T05:59:54.339Z,15.98
2022-10-18T06:02:21.020Z,15.94
2022-10-18T06:04:47.628Z,15.89
2022-10-18T06:07:14.444Z,15.87
2022-10-18T06:09:41.685Z,15.84
2022-10-18T06:12:09.109Z,15.81
2022-10-18T06:14:37.196Z,15.78
2022-10-18T06:17:05.418Z,15.74
2022-10-18T06:19:32.056Z,15.71
2022-10-18T06:21:58.642Z,15.71
2022-10-18T06:24:26.274Z,15.68
2022-10-18T06:26:52.914Z,15.67
2022-10-18T06:29:19.600Z,15.67
2022-10-18T06:31:46.156Z,15.66
2022-10-18T06:34:14.123Z,15.66
2022-10-18T06:36:41.179Z,15.62
2022-10-18T06:39:07.978Z,15.60
2022-10-18T06:41:34.633Z,15.56
2022-10-18T06:44:07.113Z,15.53
2022-10-18T06:46:34.129Z,15.52
2022-10-18T06:49:00.744Z,15.49
2022-10-18T06:51:28.727Z,15.46
2022-10-18T06:54:06.136Z,15.43
2022-10-18T06:56:39.833Z,15.41
2022-10-18T06:59:06.483Z,15.40
2022-10-18T07:01:33.424Z,15.39
2022-10-18T07:04:02.548Z,15.38
2022-10-18T07:06:33.288Z,15.36
2022-10-18T07:09:00.295Z,15.34
2022-10-18T07:11:27.381Z,15.34
2022-10-18T07:13:55.469Z,15.33
2022-10-18T07:16:22.134Z,15.33
2022-10-18T07:18:50.982Z,15.31
2022-10-18T07:21:20.322Z,15.34
2022-10-18T07:23:49.506Z,15.29
2022-10-18T07:26:17.710Z,15.27
2022-10-18T07:28:46.067Z,15.31
2022-10-18T07:31:13.614Z,15.29
2022-10-18T07:33:40.367Z,15.33
2022-10-18T07:36:09.237Z,15.31
2022-10-18T07:38:36.908Z,15.33
2022-10-18T07:41:09.251Z,15.34
2022-10-18T07:43:35.826Z,15.34
2022-10-18T07:46:05.309Z,15.36
2022-10-18T07:48:31.903Z,15.38
2022-10-18T07:50:59.796Z,15.39
2022-10-18T07:53:26.813Z,15.40
2022-10-18T07:55:57.721Z,15.39
2022-10-18T07:58:25.842Z,15.41
2022-10-18T08:00:52.771Z,15.40
2022-10-18T08:03:19.886Z,15.39
2022-10-18T08:05:52.024Z,15.40
2022-10-18T08:08:19.117Z,15.40
2022-10-18T08:10:45.730Z,15.44
2022-10-18T08:13:12.359Z,15.45
2022-10-18T08:15:40.451Z,15.47
2022-10-18T08:18:07.114Z,15.47
2022-10-18T08:20:33.781Z,15.49
2022-10-18T08:23:00.893Z,15.49
2022-10-18T08:25:28.928Z,15.50
2022-10-18T08:27:55.689Z,15.53
2022-10-18T08:30:23.468Z,15.52
2022-10-18T08:32:51.430Z,15.53
2022-10-18T08:35:18.262Z,15.55
2022-10-18T08:37:45.426Z,15.57
2022-10-18T08:40:13.833Z,15.58
2022-10-18T08:42:58.885Z,15.60
2022-10-18T08:45:40.878Z,15.62
2022-10-18T08:48:21.833Z,15.66
2022-10-18T08:50:50.979Z,15.67
2022-10-18T08:53:24.387Z,15.69
2022-10-18T08:55:54.995Z,15.71
2022-10-18T08:58:23.595Z,15.75
2022-10-18T09:00:58.146Z,15.77
2022-10-18T09:03:48.737Z,15.80
2022-10-18T09:06:25.466Z,15.82
2022-10-18T09:09:19.023Z,15.85
2022-10-18T09:12:01.906Z,15.83
2022-10-18T09:15:06.886Z,15.87
2022-10-18T09:17:44.013Z,15.86
2022-10-18T09:20:25.696Z,15.90
2022-10-18T09:22:55.228Z,15.93
2022-10-18T09:25:24.254Z,15.94
2022-10-18T09:27:59.830Z,15.98
2022-10-18T09:30:49.278Z,16.03
2022-10-18T09:33:28.742Z,16.05
2022-10-18T09:35:58.987Z,16.09
2022-10-18T09:38:30.875Z,16.11
2022-10-18T09:41:00.744Z,16.12
2022-10-18T09:43:39.826Z,16.13
2022-10-18T09:46:07.246Z,16.15
2022-10-18T09:48:41.643Z,16.18
2022-10-18T09:51:12.562Z,16.20
2022-10-18T09:53:44.466Z,16.21
2022-10-18T09:56:15.138Z,16.23
2022-10-18T09:58:44.314Z,16.25
2022-10-18T10:01:13.349Z,16.27
2022-10-18T10:03:40.051Z,16.28
2022-10-18T10:06:26.478Z,16.29
2022-10-18T10:09:00.467Z,16.28
2022-10-18T10:11:36.711Z,16.30
2022-10-18T10:14:13.289Z,16.32
2022-10-18T10:16:46.767Z,16.35
2022-10-18T10:19:18.890Z,16.37
2022-10-18T10:21:49.182Z,16.40
2022-10-18T10:24:31.201Z,16.42
2022-10-18T10:27:00.160Z,16.46
2022-10-18T10:29:45.203Z,16.48
2022-10-18T10:32:13.264Z,16.52
2022-10-18T10:34:43.884Z,16.55
2022-10-18T10:37:28.684Z,16.57
2022-10-18T10:40:23.964Z,16.62
2022-10-18T10:43:18.245Z,16.64
2022-10-18T10:46:02.715Z,16.65
2022-10-18T10:48:33.711Z,16.69
2022-10-18T10:51:04.104Z,16.72
2022-10-18T10:53:39.968Z,16.74
2022-10-18T10:56:16.142Z,16.76
2022-10-18T10:58:43.074Z,16.78
2022-10-18T11:01:22.511Z,16.80
2022-10-18T11:03:50.868Z,16.82
2022-10-18T11:06:35.443Z,16.86
2022-10-18T11:09:10.315Z,16.88
2022-10-18T11:11:46.763Z,16.90
2022-10-18T11:14:26.662Z,16.95
2022-10-18T11:17:06.951Z,16.99
2022-10-18T11:19:41.260Z,17.02
2022-10-18T11:22:13.910Z,17.07
2022-10-18T11:24:47.329Z,17.09
2022-10-18T11:27:24.131Z,17.11
2022-10-18T11:30:07.727Z,17.16
2022-10-18T11:32:44.264Z,17.18
2022-10-18T11:35:31.884Z,17.19
2022-10-18T11:38:14.097Z,17.22
2022-10-18T11:40:51.212Z,17.26
2022-10-18T11:43:30.265Z,17.27
2022-10-18T11:46:06.957Z,17.30
2022-10-18T11:48:49.433Z,17.36
2022-10-18T11:51:35.363Z,17.40
2022-10-18T11:57:22.508Z,17.48
2022-10-18T12:00:01.288Z,17.51
2022-10-18T12:02:55.117Z,17.54
2022-10-18T12:05:23.963Z,17.57
2022-10-18T12:07:58.396Z,17.60
2022-10-18T12:10:38.055Z,17.66
2022-10-18T12:13:19.205Z,17.69
2022-10-18T12:15:47.596Z,17.72
2022-10-18T12:18:17.613Z,17.71
2022-10-18T12:20:49.422Z,17.74
2022-10-18T12:23:20.743Z,17.78
2022-10-18T12:25:53.926Z,17.82
2022-10-18T12:28:35.308Z,17.86
2022-10-18T12:31:08.513Z,17.89
2022-10-18T12:33:40.464Z,17.94
2022-10-18T12:36:22.934Z,17.99
2022-10-18T12:38:53.518Z,18.03
2022-10-18T12:41:23.476Z,18.07
2022-10-18T12:43:58.895Z,18.06
2022-10-18T12:46:43.877Z,18.09
2022-10-18T12:49:13.571Z,18.11
2022-10-18T12:51:51.845Z,18.14
2022-10-18T12:54:24.092Z,18.15
2022-10-18T12:56:50.974Z,18.18
2022-10-18T12:59:53.880Z,18.19
2022-10-18T13:02:31.483Z,18.20
2022-10-18T13:05:00.421Z,18.22
2022-10-18T13:07:41.069Z,18.26
2022-10-18T13:10:41.244Z,18.28
2022-10-18T13:13:39.680Z,18.29
2022-10-18T13:16:24.946Z,18.29
2022-10-18T13:18:57.757Z,18.32
2022-10-18T13:21:35.090Z,18.33
2022-10-18T13:24:25.975Z,18.35
2022-10-18T13:27:24.366Z,18.39
2022-10-18T13:30:12.305Z,18.39
2022-10-18T13:32:57.345Z,18.42
2022-10-18T13:35:44.762Z,18.44
2022-10-18T13:38:32.699Z,18.44
2022-10-18T13:41:03.536Z,18.47
2022-10-18T13:44:12.731Z,18.49
2022-10-18T13:47:13.195Z,18.52
2022-10-18T13:50:04.053Z,18.48
2022-10-18T13:52:50.119Z,18.48
2022-10-18T13:55:56.135Z,18.53
2022-10-18T13:58:32.948Z,18.54
2022-10-18T14:01:17.040Z,18.53
2022-10-18T14:04:03.011Z,18.56
2022-10-18T14:06:35.377Z,18.54
2022-10-18T14:09:14.119Z,18.53
2022-10-18T14:11:55.815Z,18.51
2022-10-18T14:14:29.935Z,18.50
2022-10-18T14:17:03.803Z,18.47
2022-10-18T14:19:38.479Z,18.48
2022-10-18T14:22:13.790Z,18.47
2022-10-18T14:24:44.922Z,18.45
2022-10-18T14:27:22.399Z,18.45
2022-10-18T14:29:50.992Z,18.46
2022-10-18T14:32:29.349Z,18.45
2022-10-18T14:35:20.675Z,18.42
2022-10-18T14:37:47.745Z,18.40
2022-10-18T14:40:37.947Z,18.40
2022-10-18T14:43:10.641Z,18.38
2022-10-18T14:45:37.426Z,18.37
2022-10-18T14:48:15.263Z,18.34
2022-10-18T14:50:44.715Z,18.33
2022-10-18T14:53:17.959Z,18.30
2022-10-18T14:55:52.944Z,18.27
2022-10-18T14:58:20.752Z,18.25
2022-10-18T15:00:50.512Z,18.24
2022-10-18T15:03:20.375Z,18.24
2022-10-18T15:06:03.566Z,18.23
2022-10-18T15:08:36.942Z,18.21
2022-10-18T15:11:10.507Z,18.18
2022-10-18T15:13:47.142Z,18.15
2022-10-18T15:16:17.570Z,18.13
2022-10-18T15:18:58.508Z,18.12
2022-10-18T15:21:25.954Z,18.11
2022-10-18T15:23:55.240Z,18.07
2022-10-18T15:26:26.544Z,18.06
2022-10-18T15:28:56.628Z,18.05
2022-10-18T15:31:26.843Z,18.04
2022-10-18T15:33:55.343Z,18.04
2022-10-18T15:36:29.373Z,18.02
2022-10-18T15:39:07.032Z,17.97
2022-10-18T15:41:46.116Z,17.92
2022-10-18T15:44:21.008Z,17.87
2022-10-18T15:46:48.826Z,17.83
2022-10-18T15:50:00.297Z,17.78
2022-10-18T15:52:39.692Z,17.73
2022-10-18T15:55:55.936Z,17.70
2022-10-18T15:58:27.485Z,17.66
2022-10-18T16:00:57.806Z,17.64
2022-10-18T16:03:25.448Z,17.63
2022-10-18T16:05:56.513Z,17.58
2022-10-18T16:08:24.398Z,17.54
2022-10-18T16:10:51.659Z,17.52
2022-10-18T16:13:18.896Z,17.50
2022-10-18T16:15:47.052Z,17.47
2022-10-18T16:18:16.180Z,17.44
2022-10-18T16:20:42.898Z,17.35
2022-10-18T16:23:16.372Z,17.27
2022-10-18T16:25:43.165Z,17.22
2022-10-18T16:28:13.453Z,17.19
2022-10-18T16:30:40.931Z,17.14
2022-10-18T16:33:08.915Z,17.08
2022-10-18T16:35:35.876Z,17.05
2022-10-18T16:38:02.816Z,17.01
2022-10-18T16:40:29.468Z,16.99
2022-10-18T16:42:56.104Z,16.94
2022-10-18T16:45:22.725Z,16.87
2022-10-18T16:47:49.374Z,16.83
2022-10-18T16:50:19.715Z,16.80
2022-10-18T16:52:46.535Z,16.74
2022-10-18T16:55:21.258Z,16.72
2022-10-18T16:57:50.314Z,16.68
2022-10-18T17:00:26.179Z,16.65
2022-10-18T17:02:53.747Z,16.63
2022-10-18T17:05:22.683Z,16.59
2022-10-18T17:07:49.716Z,16.57
2022-10-18T17:10:18.991Z,16.55
2022-10-18T17:12:45.962Z,16.52
2022-10-18T17:15:13.071Z,16.46
2022-10-18T17:17:39.716Z,16.39
2022-10-18T17:20:08.131Z,16.35
2022-10-18T17:22:36.238Z,16.28
2022-10-18T17:25:03.076Z,16.23
2022-10-18T17:27:29.810Z,16.19
2022-10-18T17:29:57.536Z,16.17
2022-10-18T17:32:24.230Z,16.16
2022-10-18T17:34:50.910Z,16.11
2022-10-18T17:37:17.562Z,16.09
2022-10-18T17:39:45.644Z,16.06
2022-10-18T17:42:12.459Z,16.01
2022-10-18T17:44:39.149Z,15.96
2022-10-18T17:47:05.776Z,15.89
2022-10-18T17:49:32.439Z,15.84
2022-10-18T17:52:02.086Z,15.80
2022-10-18T17:54:31.091Z,15.76
2022-10-18T17:56:59.069Z,15.72
2022-10-18T17:59:26.158Z,15.66
2022-10-18T18:01:53.779Z,15.63
2022-10-18T18:04:20.426Z,15.55
2022-10-18T18:06:49.038Z,15.54
2022-10-18T18:09:16.572Z,15.51
2022-10-18T18:11:45.002Z,15.47
2022-10-18T18:14:13.274Z,15.43
2022-10-18T18:16:41.701Z,15.43
2022-10-18T18:19:10.053Z,15.43
2022-10-18T18:21:39.417Z,15.40
2022-10-18T18:24:07.057Z,15.38
2022-10-18T18:26:38.284Z,15.29
2022-10-18T18:29:05.090Z,15.25
2022-10-18T18:31:38.791Z,15.21
2022-10-18T18:34:09.584Z,15.17
2022-10-18T18:36:36.750Z,15.13
2022-10-18T18:39:05.546Z,15.10
2022-10-18T18:41:33.493Z,15.07
2022-10-18T18:44:04.186Z,15.01
2022-10-18T18:46:36.613Z,14.95
2022-10-18T18:49:03.614Z,14.89
2022-10-18T18:51:30.268Z,14.86
2022-10-18T18:53:59.870Z,14.82
2022-10-18T18:56:29.066Z,14.77
2022-10-18T18:58:56.880Z,14.70
2022-10-18T19:01:25.794Z,14.64
2022-10-18T19:03:55.714Z,14.57
2022-10-18T19:06:24.151Z,14.52
2022-10-18T19:08:54.139Z,14.46
2022-10-18T19:11:22.331Z,14.41
2022-10-18T19:13:49.408Z,14.32
2022-10-18T19:16:20.113Z,14.25
2022-10-18T19:18:59.201Z,14.18
2022-10-18T19:21:28.270Z,14.09
2022-10-18T19:23:56.565Z,14.03
2022-10-18T19:26:29.933Z,13.96
2022-10-18T19:29:01.704Z,13.87
2022-10-18T19:31:28.775Z,13.81
2022-10-18T19:33:59.686Z,13.77
2022-10-18T19:36:29.132Z,13.73
2022-10-18T19:38:55.991Z,13.67
2022-10-18T19:43:55.798Z,13.57
2022-10-18T19:46:22.924Z,13.54
2022-10-18T19:48:49.613Z,13.54
2022-10-18T19:51:20.248Z,13.51
2022-10-18T19:53:52.123Z,13.50
2022-10-18T19:56:21.755Z,13.50
2022-10-18T19:58:49.475Z,13.48
2022-10-18T20:01:17.568Z,13.44
2022-10-18T20:03:45.128Z,13.38
2022-10-18T20:06:12.213Z,13.33
2022-10-18T20:08:39.383Z,13.28
2022-10-18T20:11:09.143Z,13.25
2022-10-18T20:13:36.416Z,13.24
2022-10-18T20:16:04.999Z,13.21
2022-10-18T20:18:31.622Z,13.18
2022-10-18T20:20:58.283Z,13.14
2022-10-18T20:23:25.016Z,13.08
2022-10-18T20:25:59.032Z,13.04
2022-10-18T20:28:27.611Z,13.00
2022-10-18T20:31:02.320Z,12.95
2022-10-18T20:33:29.024Z,12.93
2022-10-18T20:35:55.827Z,12.91
2022-10-18T20:38:22.684Z,12.89
2022-10-18T20:40:49.459Z,12.85
2022-10-18T20:43:16.051Z,12.81
2022-10-18T20:45:43.979Z,12.77
2022-10-18T20:48:10.636Z,12.73
2022-10-18T20:50:40.945Z,12.68
2022-10-18T20:53:08.337Z,12.65
2022-10-18T20:55:36.435Z,12.62
2022-10-18T20:58:03.084Z,12.57
2022-10-18T21:00:29.650Z,12.53
2022-10-18T21:02:59.122Z,12.49
2022-10-18T21:05:25.940Z,12.47
2022-10-18T21:07:52.845Z,12.42
2022-10-18T21:10:19.398Z,12.37
2022-10-18T21:12:48.023Z,12.37
2022-10-18T21:15:15.513Z,12.36
2022-10-18T21:17:42.295Z,12.34
2022-10-18T21:20:11.578Z,12.34
2022-10-18T21:22:38.267Z,12.32
2022-10-18T21:25:05.963Z,12.32
2022-10-18T21:27:32.577Z,12.29
2022-10-18T21:29:59.171Z,12.27
2022-10-18T21:32:25.770Z,12.24
2022-10-18T21:34:52.551Z,12.21
2022-10-18T21:37:20.765Z,12.21
2022-10-18T21:39:47.643Z,12.19
2022-10-18T21:42:14.199Z,12.16
2022-10-18T21:44:40.783Z,12.13
2022-10-18T21:47:08.467Z,12.11
2022-10-18T21:49:35.192Z,12.09
2022-10-18T21:52:05.462Z,12.06
2022-10-18T21:54:33.433Z,12.03
2022-10-18T21:56:59.988Z,11.99
2022-10-18T21:59:26.627Z,11.97
2022-10-18T22:01:53.362Z,11.95
2022-10-18T22:04:21.867Z,11.92
2022-10-18T22:06:48.826Z,11.89
2022-10-18T22:09:15.687Z,11.87
2022-10-18T22:11:46.164Z,11.87
2022-10-18T22:14:12.916Z,11.84
2022-10-18T22:16:39.588Z,11.83
2022-10-18T22:19:07.212Z,11.83
2022-10-18T22:21:34.767Z,11.79
2022-10-18T22:24:05.529Z,11.77
2022-10-18T22:26:35.311Z,11.74
2022-10-18T22:29:06.299Z,11.72
2022-10-18T22:31:35.393Z,11.72
2022-10-18T22:34:04.239Z,11.74
2022-10-18T22:36:32.868Z,11.74
2022-10-18T22:38:59.999Z,11.76
2022-10-18T22:41:26.680Z,11.80
2022-10-18T22:43:53.522Z,11.81
2022-10-18T22:46:21.632Z,11.82
2022-10-18T22:48:48.660Z,11.86
2022-10-18T22:51:15.509Z,11.88
2022-10-18T22:53:42.127Z,11.90
2022-10-18T22:56:11.956Z,11.92
2022-10-18T22:58:38.677Z,11.95
2022-10-18T23:01:07.761Z,11.98
2022-10-18T23:03:36.478Z,11.98
2022-10-18T23:06:04.363Z,11.97
2022-10-18T23:08:31.950Z,11.97
2022-10-18T23:10:59.663Z,11.97
2022-10-18T23:13:27.404Z,11.93
2022-10-18T23:16:04.370Z,11.92
2022-10-18T23:18:32.059Z,11.90
2022-10-18T23:21:04.245Z,11.89
2022-10-18T23:23:34.700Z,11.87
2022-10-18T23:26:03.150Z,11.86
2022-10-18T23:28:29.787Z,11.84
2022-10-18T23:30:56.457Z,11.83
2022-10-18T23:33:23.024Z,11.81
2022-10-18T23:35:49.675Z,11.78
2022-10-18T23:38:18.028Z,11.76
2022-10-18T23:40:44.704Z,11.75
2022-10-18T23:43:11.326Z,11.73
2022-10-18T23:45:38.002Z,11.68
2022-10-18T23:48:04.838Z,11.64
2022-10-18T23:50:31.579Z,11.62
2022-10-18T23:52:58.210Z,11.59
2022-10-18T23:55:26.166Z,11.56
2022-10-18T23:57:53.086Z,11.52
